Time;durP1;ratioP1;P1;durP2;ratioP2;P2;SDS_P1;SDS_P2;PMS_P1;PMS_P2;Temp;Humidity;BMP_temperature;BMP_pressure;BME280_temperature;BME280_humidity;BME280_pressure;Samples;Min_cycle;Max_cycle;Signal;HPM_P1;HPM_P2
2022/11/05 00:10:25;;;;;;;3.25;1.30;;;9.60;99.90;;;;;;6258141;23;20032;-86
2022/11/05 00:18:22;;;;;;;2.42;1.10;;;9.60;99.90;;;;;;6261548;23;20022;-85
2022/11/05 00:20:48;;;;;;;2.88;1.05;;;9.70;99.90;;;;;;6255593;22;20012;-82
2022/11/05 00:26:04;;;;;;;1.83;0.80;;;9.70;99.90;;;;;;6255751;23;20011;-80
2022/11/05 00:28:30;;;;;;;1.02;0.93;;;9.70;99.90;;;;;;6255204;23;20004;-80
2022/11/05 00:31:05;;;;;;;3.22;0.88;;;9.70;99.90;;;;;;6228901;23;20027;-82
2022/11/05 00:33:31;;;;;;;;;;;9.80;99.90;;;;;;6228690;23;20351;-78
2022/11/05 00:35:57;;;;;;;1.17;0.93;;;9.80;99.90;;;;;;6253105;23;19906;-81
2022/11/05 00:38:23;;;;;;;1.52;1.00;;;9.80;99.90;;;;;;6252977;23;20008;-81
2022/11/05 00:40:49;;;;;;;2.15;1.00;;;9.80;99.90;;;;;;6252031;23;20006;-80
2022/11/05 00:45:59;;;;;;;1.20;0.82;;;9.70;99.90;;;;;;6253074;23;20011;-78
2022/11/05 00:51:09;;;;;;;1.25;0.80;;;9.80;99.90;;;;;;6263508;23;20008;-80
2022/11/05 00:53:35;;;;;;;1.27;1.00;;;9.80;99.90;;;;;;6260155;23;20001;-81
2022/11/05 00:56:01;;;;;;;2.20;0.98;;;9.80;99.90;;;;;;6201860;23;20043;-81
2022/11/05 00:58:28;;;;;;;3.15;1.33;;;9.80;99.90;;;;;;6226710;23;20008;-80
2022/11/05 01:00:55;;;;;;;1.23;0.88;;;9.80;99.90;;;;;;6254323;23;20000;-80
2022/11/05 01:03:27;;;;;;;1.77;1.00;;;9.80;99.90;;;;;;6254048;23;20048;-80
2022/11/05 01:05:55;;;;;;;2.88;0.70;;;9.80;99.90;;;;;;6228641;23;20011;-79
2022/11/05 01:08:23;;;;;;;0.88;0.80;;;9.80;99.90;;;;;;6263325;23;19995;-80
2022/11/05 01:10:51;;;;;;;3.30;1.10;;;9.80;99.90;;;;;;6239766;23;20008;-80
2022/11/05 01:13:24;;;;;;;4.70;1.38;;;9.80;99.90;;;;;;6267443;23;20055;-81
2022/11/05 01:15:50;;;;;;;2.92;1.13;;;9.80;99.90;;;;;;6239892;23;20384;-79
2022/11/05 01:18:17;;;;;;;1.40;1.00;;;9.80;99.90;;;;;;6263704;23;20008;-78
2022/11/05 01:20:43;;;;;;;1.40;0.80;;;9.80;99.90;;;;;;6257852;23;20063;-77
2022/11/05 01:23:09;;;;;;;3.25;0.80;;;9.80;99.90;;;;;;6237538;23;20277;-81
2022/11/05 01:25:35;;;;;;;2.60;1.73;;;9.80;99.90;;;;;;6215733;23;20000;-78
2022/11/05 01:28:02;;;;;;;1.42;1.00;;;9.80;99.90;;;;;;6241414;23;20159;-79
2022/11/05 01:30:28;;;;;;;1.60;0.95;;;9.70;99.90;;;;;;6241022;23;20036;-80
2022/11/05 01:32:54;;;;;;;1.88;1.02;;;9.70;99.90;;;;;;6241061;23;19997;-78
2022/11/05 01:35:20;;;;;;;2.80;1.17;;;9.70;99.90;;;;;;6228490;23;20046;-80
2022/11/05 01:37:46;;;;;;;1.38;0.73;;;9.70;99.90;;;;;;6222846;23;20396;-79
2022/11/05 01:40:19;;;;;;;1.55;1.05;;;9.70;99.90;;;;;;6223606;23;20036;-81
2022/11/05 01:42:45;;;;;;;1.75;1.00;;;9.70;99.90;;;;;;6222787;23;20086;-79
2022/11/05 01:45:19;;;;;;;2.15;1.33;;;9.70;99.90;;;;;;6198450;23;19997;-79
2022/11/05 01:48:05;;;;;;;5.07;1.00;;;9.80;99.90;;;;;;6221636;23;20096;-80
2022/11/05 01:50:31;;;;;;;2.10;1.00;;;9.80;99.90;;;;;;6171157;23;20023;-81
2022/11/05 01:53:12;;;;;;;2.85;1.13;;;9.80;99.90;;;;;;6195433;23;20000;-80
2022/11/05 01:55:46;;;;;;;3.08;1.23;;;9.80;99.90;;;;;;6195140;23;20004;-80
2022/11/05 01:58:17;;;;;;;1.23;1.10;;;9.90;99.90;;;;;;6221905;23;20012;-79
2022/11/05 02:00:43;;;;;;;4.28;1.73;;;9.90;99.90;;;;;;6223226;23;20005;-80
2022/11/05 02:03:10;;;;;;;2.38;1.33;;;9.80;99.90;;;;;;6221932;23;19996;-80
2022/11/05 02:05:38;;;;;;;3.60;1.10;;;9.80;99.90;;;;;;6222371;23;20012;-79
2022/11/05 02:08:04;;;;;;;2.78;1.10;;;9.80;99.90;;;;;;6221072;23;20079;-81
2022/11/05 02:10:30;;;;;;;1.05;0.90;;;9.80;99.90;;;;;;6220475;23;20521;-79
2022/11/05 02:12:56;;;;;;;3.88;1.20;;;9.80;99.90;;;;;;6224129;23;20111;-78
2022/11/05 02:15:50;;;;;;;2.47;1.15;;;9.80;99.90;;;;;;6222311;23;20035;-79
2022/11/05 02:18:39;;;;;;;2.50;1.50;;;9.80;99.90;;;;;;6156685;23;20454;-80
2022/11/05 02:21:39;;;;;;;2.15;1.00;;;9.80;99.90;;;;;;6224802;23;20015;-80
2022/11/05 02:24:39;;;;;;;2.13;1.30;;;9.80;99.90;;;;;;6199279;23;20039;-79
2022/11/05 02:27:42;;;;;;;1.05;0.95;;;9.80;99.90;;;;;;6195941;23;20419;-80
2022/11/05 02:30:27;;;;;;;1.77;1.00;;;9.70;99.90;;;;;;6202830;23;20004;-79
2022/11/05 02:33:21;;;;;;;4.50;0.85;;;9.70;99.90;;;;;;6200864;23;20498;-79
2022/11/05 02:36:17;;;;;;;2.05;1.02;;;9.70;99.90;;;;;;6204785;23;20019;-79
2022/11/05 02:38:54;;;;;;;4.80;0.90;;;9.70;99.90;;;;;;6233289;23;20013;-80
2022/11/05 02:41:28;;;;;;;4.38;1.33;;;9.60;99.90;;;;;;6230763;23;20028;-79
2022/11/05 02:44:33;;;;;;;2.92;1.30;;;9.60;99.90;;;;;;6227718;23;20000;-80
2022/11/05 02:47:25;;;;;;;1.17;1.00;;;9.60;99.90;;;;;;6229852;23;20004;-78
2022/11/05 02:50:06;;;;;;;1.73;1.30;;;9.60;99.90;;;;;;6194204;23;20011;-78
2022/11/05 02:52:52;;;;;;;3.25;1.27;;;9.60;99.90;;;;;;6193543;23;20015;-79
2022/11/05 02:55:44;;;;;;;2.50;1.30;;;9.60;99.90;;;;;;6224569;23;20060;-80
2022/11/05 02:58:10;;;;;;;3.58;1.42;;;9.50;99.90;;;;;;6174041;23;20095;-79
2022/11/05 03:00:45;;;;;;;1.75;1.27;;;9.50;99.90;;;;;;6223443;23;20008;-79
2022/11/05 03:03:20;;;;;;;2.55;1.15;;;9.50;99.90;;;;;;6225382;23;20001;-79
2022/11/05 03:06:10;;;;;;;3.78;1.50;;;9.50;99.90;;;;;;6230456;23;20008;-79
2022/11/05 03:08:49;;;;;;;3.55;1.10;;;9.50;99.90;;;;;;6227049;23;20005;-80
2022/11/05 03:11:21;;;;;;;2.03;1.30;;;9.50;99.90;;;;;;6194603;23;20032;-78
2022/11/05 03:14:16;;;;;;;1.30;1.20;;;9.50;99.90;;;;;;6195731;23;20008;-78
2022/11/05 03:16:49;;;;;;;9.13;1.33;;;9.50;99.90;;;;;;6222464;23;20023;-79
2022/11/05 03:19:45;;;;;;;3.60;1.40;;;9.50;99.90;;;;;;6220254;23;20011;-80
2022/11/05 03:22:17;;;;;;;1.95;1.30;;;9.60;99.90;;;;;;6223142;23;20016;-80
2022/11/05 03:24:50;;;;;;;1.50;0.95;;;9.50;99.90;;;;;;6194532;23;20015;-79
2022/11/05 03:27:22;;;;;;;2.80;1.38;;;9.60;99.90;;;;;;6204061;23;20005;-79
2022/11/05 03:30:06;;;;;;;2.60;1.10;;;9.60;99.90;;;;;;6235236;23;20001;-78
2022/11/05 03:32:36;;;;;;;2.35;1.15;;;9.60;99.90;;;;;;6208291;23;20150;-79
2022/11/05 03:35:14;;;;;;;4.43;1.38;;;9.60;99.90;;;;;;6236263;23;20004;-79
2022/11/05 03:37:43;;;;;;;2.90;1.20;;;9.60;99.90;;;;;;6206850;23;20088;-79
2022/11/05 03:40:12;;;;;;;2.50;1.20;;;9.60;99.90;;;;;;6232320;23;19996;-78
2022/11/05 03:42:43;;;;;;;3.42;1.40;;;9.60;99.90;;;;;;6205307;23;20011;-80
2022/11/05 03:45:15;;;;;;;3.40;1.40;;;9.60;99.90;;;;;;6208059;23;20005;-79
2022/11/05 03:47:43;;;;;;;1.42;1.10;;;9.70;99.90;;;;;;6233196;23;20015;-78
2022/11/05 03:50:24;;;;;;;5.28;1.42;;;9.70;99.90;;;;;;6205565;23;20400;-79
2022/11/05 03:52:58;;;;;;;3.40;1.45;;;9.70;99.90;;;;;;6206101;23;20013;-79
2022/11/05 03:55:31;;;;;;;2.03;1.20;;;9.70;99.90;;;;;;6224951;23;20335;-80
2022/11/05 03:57:58;;;;;;;5.63;1.55;;;9.80;99.90;;;;;;6225791;23;20060;-80
2022/11/05 04:00:24;;;;;;;2.70;1.35;;;9.80;99.90;;;;;;6198150;23;20039;-80
2022/11/05 04:02:50;;;;;;;3.03;1.70;;;9.80;99.90;;;;;;6225492;23;20009;-80
2022/11/05 04:05:16;;;;;;;3.55;1.48;;;9.90;99.90;;;;;;6228494;23;20007;-79
2022/11/05 04:13:24;;;;;;;3.10;1.20;;;10.00;99.90;;;;;;6223027;23;20013;-78
2022/11/05 04:18:37;;;;;;;4.57;1.55;;;10.00;99.90;;;;;;6229938;23;20008;-80
2022/11/05 04:24:07;;;;;;;5.53;1.95;;;10.00;99.90;;;;;;6230628;23;20024;-79
2022/11/05 04:26:34;;;;;;;2.20;1.33;;;10.10;99.90;;;;;;6228899;23;20028;-79
2022/11/05 04:31:44;;;;;;;9.33;1.70;;;10.00;99.90;;;;;;6229077;23;20004;-78
2022/11/05 04:34:09;;;;;;;2.15;1.40;;;10.00;99.90;;;;;;6226905;23;20232;-79
2022/11/05 04:36:35;;;;;;;4.95;2.20;;;10.00;99.90;;;;;;6202651;23;20005;-80
2022/11/05 04:39:01;;;;;;;3.03;1.52;;;10.00;99.90;;;;;;6204102;23;20004;-80
2022/11/05 04:41:27;;;;;;;3.10;1.67;;;10.00;99.90;;;;;;6197941;23;20335;-79
2022/11/05 04:43:52;;;;;;;5.70;1.92;;;10.00;99.90;;;;;;6193940;23;20055;-79
2022/11/05 04:46:18;;;;;;;2.75;1.92;;;10.00;99.90;;;;;;6168356;23;20055;-79
2022/11/05 04:48:44;;;;;;;3.47;2.25;;;10.00;99.90;;;;;;6219368;23;20000;-78
2022/11/05 04:51:10;;;;;;;3.78;2.15;;;9.90;99.90;;;;;;6192878;23;20455;-79
2022/11/05 04:53:35;;;;;;;4.20;2.40;;;9.90;99.90;;;;;;6221226;23;20000;-80
2022/11/05 04:56:19;;;;;;;6.18;2.67;;;9.90;99.90;;;;;;6221391;23;20005;-80
2022/11/05 04:58:45;;;;;;;7.10;2.75;;;9.90;99.90;;;;;;6219734;23;20020;-79
2022/11/05 05:01:17;;;;;;;7.43;3.05;;;9.90;99.90;;;;;;6221446;23;19997;-79
2022/11/05 05:03:43;;;;;;;5.60;2.70;;;9.90;99.90;;;;;;6219176;23;20431;-81
2022/11/05 05:06:09;;;;;;;3.75;2.28;;;9.90;99.90;;;;;;6193403;23;20004;-79
2022/11/05 05:08:35;;;;;;;7.63;3.20;;;9.80;99.90;;;;;;6193062;23;20011;-80
2022/11/05 05:11:03;;;;;;;5.68;3.00;;;9.80;99.90;;;;;;6220512;23;19996;-79
2022/11/05 05:13:29;;;;;;;7.55;2.85;;;9.80;99.90;;;;;;6192302;23;20009;-79
2022/11/05 05:15:55;;;;;;;5.90;2.72;;;9.80;99.90;;;;;;6193994;23;20339;-79
2022/11/05 05:18:21;;;;;;;8.77;3.20;;;9.70;99.90;;;;;;6218364;23;20012;-79
2022/11/05 05:23:32;;;;;;;5.82;3.15;;;9.70;99.90;;;;;;6220760;23;20493;-79
2022/11/05 05:25:59;;;;;;;6.53;3.50;;;9.70;99.90;;;;;;6218571;23;20005;-79
2022/11/05 05:28:26;;;;;;;6.95;3.47;;;9.60;99.90;;;;;;6217076;23;20399;-79
2022/11/05 05:30:52;;;;;;;10.77;3.50;;;9.60;99.90;;;;;;6220190;23;20008;-80
2022/11/05 05:33:18;;;;;;;10.75;3.22;;;9.60;99.90;;;;;;6195229;23;20012;-77
2022/11/05 05:35:44;;;;;;;9.80;3.20;;;9.60;99.90;;;;;;6230309;23;20021;-79
2022/11/05 05:38:10;;;;;;;8.00;2.85;;;9.60;99.90;;;;;;6236648;23;20039;-80
2022/11/05 05:40:36;;;;;;;5.72;3.00;;;9.50;99.90;;;;;;6201675;23;20008;-79
2022/11/05 05:43:02;;;;;;;4.63;2.88;;;9.60;99.90;;;;;;6229528;23;20072;-79
2022/11/05 05:45:27;;;;;;;5.50;2.90;;;9.60;99.90;;;;;;6223369;23;20446;-80
2022/11/05 05:47:54;;;;;;;6.47;2.75;;;9.60;99.90;;;;;;6222420;23;20004;-79
2022/11/05 05:50:20;;;;;;;7.75;3.20;;;9.60;99.90;;;;;;6222776;23;20014;-79
2022/11/05 05:52:51;;;;;;;8.48;3.28;;;9.60;99.90;;;;;;6200349;23;20001;-80
2022/11/05 05:55:17;;;;;;;6.07;3.47;;;9.60;99.90;;;;;;6227929;23;20012;-80
2022/11/05 05:57:42;;;;;;;7.47;2.80;;;9.60;99.90;;;;;;6176409;23;20013;-79
2022/11/05 06:00:09;;;;;;;5.50;3.10;;;9.60;99.90;;;;;;6168803;23;20016;-78
2022/11/05 06:02:37;;;;;;;8.35;3.67;;;9.60;99.90;;;;;;6223096;23;20028;-80
2022/11/05 06:05:03;;;;;;;5.72;3.13;;;9.60;99.90;;;;;;6193429;23;20001;-80
2022/11/05 06:07:29;;;;;;;6.50;2.83;;;9.60;99.90;;;;;;6192186;23;20000;-80
2022/11/05 06:09:55;;;;;;;8.00;3.35;;;9.60;99.90;;;;;;6220713;23;20000;-79
2022/11/05 06:12:21;;;;;;;5.43;2.90;;;9.60;99.90;;;;;;6195864;23;20044;-80
2022/11/05 06:14:47;;;;;;;6.93;3.72;;;9.60;99.90;;;;;;6233678;23;20000;-80
2022/11/05 06:17:12;;;;;;;8.23;3.55;;;9.60;99.90;;;;;;6234993;23;20004;-78
2022/11/05 06:19:38;;;;;;;13.05;4.05;;;9.60;99.90;;;;;;6232334;23;20004;-78
2022/11/05 06:22:04;;;;;;;7.30;3.83;;;9.60;99.90;;;;;;6250140;22;20008;-86
2022/11/05 06:24:30;;;;;;;6.95;3.30;;;9.60;99.90;;;;;;6267172;23;20047;-84
2022/11/05 06:26:56;;;;;;;9.60;3.67;;;9.60;99.90;;;;;;6270216;22;20067;-85
2022/11/05 06:29:22;;;;;;;9.55;4.00;;;9.60;99.90;;;;;;6272171;22;20060;-85
2022/11/05 06:31:48;;;;;;;6.05;3.10;;;9.70;99.90;;;;;;6267269;23;20001;-84
2022/11/05 06:34:14;;;;;;;7.88;3.60;;;9.70;99.90;;;;;;6269388;22;20067;-85
2022/11/05 06:36:39;;;;;;;7.13;3.70;;;9.60;99.90;;;;;;6273835;22;20042;-86
2022/11/05 06:39:10;;;;;;;5.35;3.00;;;9.60;99.90;;;;;;6273325;22;20031;-85
2022/11/05 06:41:35;;;;;;;9.52;4.22;;;9.60;99.90;;;;;;6248499;22;20048;-85
2022/11/05 06:44:01;;;;;;;11.95;4.45;;;9.60;99.90;;;;;;6274069;22;20003;-87
2022/11/05 06:46:27;;;;;;;7.32;3.38;;;9.60;99.90;;;;;;6273069;22;20060;-85
2022/11/05 06:48:53;;;;;;;10.63;3.70;;;9.60;99.90;;;;;;6272433;22;20043;-85
2022/11/05 06:51:19;;;;;;;8.70;3.55;;;9.70;99.90;;;;;;6275467;22;20026;-86
2022/11/05 06:53:45;;;;;;;6.82;3.25;;;9.70;99.90;;;;;;6276411;22;19998;-86
2022/11/05 06:56:14;;;;;;;8.27;3.85;;;9.70;99.90;;;;;;6276050;22;19992;-86
2022/11/05 06:58:39;;;;;;;5.55;3.53;;;9.70;99.90;;;;;;6275624;22;20028;-85
2022/11/05 07:01:08;;;;;;;8.82;4.00;;;9.80;99.90;;;;;;6275883;22;19995;-86
2022/11/05 07:03:37;;;;;;;10.07;3.97;;;9.70;99.90;;;;;;6250334;22;20012;-86
2022/11/05 07:06:04;;;;;;;7.80;3.72;;;9.80;99.90;;;;;;6275773;22;20022;-83
2022/11/05 07:08:32;;;;;;;8.25;3.45;;;9.80;99.90;;;;;;6274813;22;20015;-85
2022/11/05 07:10:58;;;;;;;8.13;3.17;;;9.90;99.90;;;;;;6275340;22;20048;-84
2022/11/05 07:13:25;;;;;;;7.13;3.13;;;9.90;99.90;;;;;;6275829;22;20012;-87
2022/11/05 07:15:51;;;;;;;5.78;3.08;;;10.00;99.90;;;;;;6275064;22;20009;-84
2022/11/05 07:18:17;;;;;;;8.30;2.53;;;10.00;99.90;;;;;;6275682;22;20027;-86
2022/11/05 07:20:43;;;;;;;9.90;2.90;;;10.10;99.90;;;;;;6249428;22;20020;-87
2022/11/05 07:23:13;;;;;;;10.57;3.30;;;10.10;99.90;;;;;;6275697;22;20027;-87
2022/11/05 07:25:40;;;;;;;7.72;2.88;;;10.10;99.90;;;;;;6274326;22;20020;-87
2022/11/05 07:28:07;;;;;;;10.90;3.50;;;10.20;99.90;;;;;;6275282;22;19995;-86
2022/11/05 07:30:34;;;;;;;8.63;2.70;;;10.20;99.90;;;;;;6274403;22;19996;-86
2022/11/05 07:33:00;;;;;;;12.63;3.55;;;10.20;99.90;;;;;;6274568;22;20019;-87
2022/11/05 07:35:26;;;;;;;8.00;3.22;;;10.30;99.90;;;;;;6273069;22;19997;-88
2022/11/05 07:37:54;;;;;;;6.90;2.97;;;10.30;99.90;;;;;;6274502;22;20019;-86
2022/11/05 07:40:21;;;;;;;12.15;3.30;;;10.30;99.90;;;;;;6273721;22;19996;-88
2022/11/05 07:42:52;;;;;;;7.68;3.10;;;10.30;99.90;;;;;;6272253;22;19992;-86
2022/11/05 07:45:18;;;;;;;9.63;3.33;;;10.40;99.90;;;;;;6247255;22;20016;-87
2022/11/05 07:47:50;;;;;;;12.80;3.70;;;10.40;99.90;;;;;;6247881;22;20004;-85
2022/11/05 07:50:17;;;;;;;7.05;3.22;;;10.40;99.90;;;;;;6274090;22;20008;-87
2022/11/05 07:52:43;;;;;;;5.80;3.08;;;10.40;99.90;;;;;;6273732;22;20048;-87
2022/11/05 07:55:12;;;;;;;6.38;3.40;;;10.30;99.90;;;;;;6273646;22;20008;-85
2022/11/05 07:57:45;;;;;;;6.28;3.00;;;10.30;99.90;;;;;;6272725;22;20007;-87
2022/11/05 08:00:14;;;;;;;6.40;3.03;;;10.30;99.90;;;;;;6273137;22;19993;-85
2022/11/05 08:02:41;;;;;;;5.63;2.97;;;10.40;99.90;;;;;;6246529;22;19992;-85
2022/11/05 08:05:08;;;;;;;13.38;3.25;;;10.40;99.90;;;;;;6272853;22;20022;-85
2022/11/05 08:07:34;;;;;;;9.65;3.05;;;10.40;99.90;;;;;;6272397;22;20062;-86
2022/11/05 08:10:02;;;;;;;4.90;2.63;;;10.50;99.90;;;;;;6273539;22;20004;-85
2022/11/05 08:12:29;;;;;;;7.63;3.55;;;10.50;99.90;;;;;;6247964;23;19997;-87
2022/11/05 08:14:55;;;;;;;12.27;3.38;;;10.60;99.90;;;;;;6273771;22;20003;-87
2022/11/05 08:17:21;;;;;;;7.63;3.00;;;10.60;99.90;;;;;;6271825;22;19996;-85
2022/11/05 08:19:47;;;;;;;7.53;2.80;;;10.80;99.90;;;;;;6271528;22;20001;-85
2022/11/05 08:22:12;;;;;;;4.18;2.53;;;10.90;99.90;;;;;;6272652;22;19996;-86
2022/11/05 08:24:38;;;;;;;7.97;2.83;;;11.00;99.90;;;;;;6271185;22;20018;-86
2022/11/05 08:27:04;;;;;;;11.73;2.50;;;11.10;99.90;;;;;;6270547;22;20004;-86
2022/11/05 08:29:30;;;;;;;8.07;3.20;;;11.10;99.90;;;;;;6273073;22;20008;-87
2022/11/05 08:31:55;;;;;;;9.63;2.92;;;11.20;99.90;;;;;;6270559;22;20008;-85
2022/11/05 08:34:21;;;;;;;7.35;3.13;;;11.30;99.90;;;;;;6269655;23;20012;-86
2022/11/05 08:36:48;;;;;;;6.70;3.40;;;11.40;99.90;;;;;;6270634;22;20000;-87
2022/11/05 08:39:22;;;;;;;8.02;3.42;;;11.60;99.90;;;;;;6244859;23;20020;-87
2022/11/05 08:41:52;;;;;;;9.45;3.38;;;11.80;99.90;;;;;;6245836;23;20015;-84
2022/11/05 08:44:17;;;;;;;9.10;3.80;;;11.90;99.90;;;;;;6269032;23;20044;-87
2022/11/05 08:46:43;;;;;;;7.63;2.95;;;12.00;99.90;;;;;;6269211;23;20043;-86
2022/11/05 08:49:09;;;;;;;8.18;2.90;;;12.00;99.90;;;;;;6270164;22;20004;-86
2022/11/05 08:51:35;;;;;;;9.10;4.15;;;12.00;99.90;;;;;;6268357;23;20036;-86
2022/11/05 08:54:01;;;;;;;8.70;3.75;;;11.80;99.90;;;;;;6268334;23;20005;-87
2022/11/05 08:56:27;;;;;;;7.40;3.97;;;11.80;99.90;;;;;;6261888;23;20572;-87
2022/11/05 08:58:53;;;;;;;12.57;3.83;;;11.80;99.90;;;;;;6237836;23;20028;-86
2022/11/05 09:01:19;;;;;;;6.65;3.88;;;11.80;99.90;;;;;;6266469;23;20027;-85
2022/11/05 09:03:45;;;;;;;11.93;4.78;;;11.90;99.90;;;;;;6266869;23;19988;-88
2022/11/05 09:06:10;;;;;;;10.02;3.70;;;11.70;99.90;;;;;;6269656;22;20048;-87
2022/11/05 09:08:36;;;;;;;6.47;4.25;;;11.70;99.90;;;;;;6271310;22;20027;-86
2022/11/05 09:11:02;;;;;;;7.25;3.95;;;11.70;99.90;;;;;;6269095;23;20008;-86
2022/11/05 09:13:28;;;;;;;6.93;3.60;;;11.70;99.90;;;;;;6269050;23;20024;-87
2022/11/05 09:15:54;;;;;;;10.38;3.97;;;11.80;99.90;;;;;;6271584;22;20000;-86
2022/11/05 09:18:20;;;;;;;9.48;4.10;;;11.80;99.90;;;;;;6271117;22;20366;-88
2022/11/05 09:20:46;;;;;;;11.18;4.45;;;12.00;99.90;;;;;;6243680;22;20031;-88
2022/11/05 09:23:13;;;;;;;6.53;4.10;;;12.00;99.90;;;;;;6246815;22;20004;-88
2022/11/05 09:25:39;;;;;;;9.05;4.28;;;12.00;99.90;;;;;;6272741;22;19992;-87
2022/11/05 09:28:06;;;;;;;9.63;4.78;;;12.10;99.90;;;;;;6272707;22;20022;-85
2022/11/05 09:30:32;;;;;;;9.27;4.80;;;12.10;99.90;;;;;;6273059;22;20076;-86
2022/11/05 09:32:58;;;;;;;8.23;4.60;;;12.10;99.90;;;;;;6273753;22;20012;-84
2022/11/05 09:35:26;;;;;;;8.55;5.25;;;12.10;99.90;;;;;;6273024;22;19992;-87
2022/11/05 09:37:52;;;;;;;8.77;5.00;;;12.10;99.90;;;;;;6265444;23;20012;-87
2022/11/05 09:40:21;;;;;;;12.15;4.82;;;12.30;99.90;;;;;;6265491;22;20028;-87
2022/11/05 09:42:51;;;;;;;12.02;4.47;;;12.50;99.90;;;;;;6269736;22;20055;-87
2022/11/05 09:45:21;;;;;;;7.22;4.75;;;12.50;99.90;;;;;;6246502;23;19996;-86
2022/11/05 09:47:51;;;;;;;5.72;4.13;;;12.60;99.90;;;;;;6272695;22;20015;-87
2022/11/05 09:50:29;;;;;;;9.10;4.68;;;12.60;99.90;;;;;;6270121;22;20019;-85
2022/11/05 09:52:55;;;;;;;7.97;4.88;;;12.60;99.90;;;;;;6269134;22;20012;-86
2022/11/05 09:55:42;;;;;;;11.25;5.03;;;12.70;99.90;;;;;;6271153;22;20008;-86
2022/11/05 09:58:31;;;;;;;9.15;4.90;;;13.00;99.90;;;;;;6245131;23;20008;-86
2022/11/05 10:00:58;;;;;;;8.23;4.50;;;13.10;99.90;;;;;;6270793;22;20008;-85
2022/11/05 10:03:26;;;;;;;10.90;4.93;;;13.20;99.90;;;;;;6270737;22;20031;-86
2022/11/05 10:05:56;;;;;;;9.93;4.65;;;13.20;99.90;;;;;;6245618;23;20012;-87
2022/11/05 10:08:27;;;;;;;9.63;4.40;;;13.20;99.90;;;;;;6270298;22;20023;-85
2022/11/05 10:10:57;;;;;;;8.07;4.47;;;13.20;99.90;;;;;;6245623;22;20227;-86
2022/11/05 10:13:34;;;;;;;6.28;4.35;;;13.00;99.90;;;;;;6271189;22;20026;-86
2022/11/05 10:16:13;;;;;;;11.55;5.10;;;12.90;99.90;;;;;;6246152;22;20068;-84
2022/11/05 10:18:41;;;;;;;10.20;5.20;;;12.90;99.90;;;;;;6272363;22;20027;-85
2022/11/05 10:21:19;;;;;;;9.82;4.63;;;12.80;99.90;;;;;;6272622;22;20004;-86
2022/11/05 10:24:26;;;;;;;9.80;5.05;;;12.70;99.90;;;;;;6273912;22;20000;-86
2022/11/05 10:26:54;;;;;;;8.60;4.35;;;13.10;99.90;;;;;;6249420;23;20027;-85
2022/11/05 10:29:31;;;;;;;11.60;4.50;;;13.50;99.90;;;;;;6274064;22;19996;-86
2022/11/05 10:31:59;;;;;;;6.55;4.18;;;13.80;99.90;;;;;;6273228;22;20048;-86
2022/11/05 10:34:29;;;;;;;7.80;4.20;;;14.20;99.90;;;;;;6249434;22;20020;-85
2022/11/05 10:36:55;;;;;;;7.63;4.20;;;14.50;99.90;;;;;;6274533;22;20002;-85
2022/11/05 10:39:23;;;;;;;8.30;4.50;;;14.60;99.90;;;;;;6275230;22;20000;-86
2022/11/05 10:42:07;;;;;;;8.07;4.05;;;14.60;99.90;;;;;;6274120;22;20004;-85
2022/11/05 10:44:49;;;;;;;6.97;3.92;;;14.60;99.90;;;;;;6274811;22;19989;-86
2022/11/05 10:47:27;;;;;;;8.48;3.53;;;14.50;99.90;;;;;;6248516;22;20075;-86
2022/11/05 10:50:04;;;;;;;11.45;4.75;;;14.50;99.90;;;;;;6274965;22;20000;-87
2022/11/05 10:52:38;;;;;;;7.82;3.90;;;14.50;99.90;;;;;;6276628;22;20008;-86
2022/11/05 10:55:30;;;;;;;5.97;3.87;;;14.50;99.90;;;;;;6276960;22;20003;-86
2022/11/05 10:58:27;;;;;;;6.78;3.85;;;14.40;99.90;;;;;;6274647;22;20020;-87
2022/11/05 11:00:56;;;;;;;5.95;3.10;;;14.20;99.90;;;;;;6246788;23;20027;-86
2022/11/05 11:03:49;;;;;;;7.63;3.78;;;13.90;99.90;;;;;;6239101;23;20003;-87
2022/11/05 11:06:23;;;;;;;11.02;3.03;;;13.70;99.90;;;;;;6266041;23;20008;-87
2022/11/05 11:09:04;;;;;;;6.53;3.13;;;13.70;99.90;;;;;;6272894;23;20036;-87
2022/11/05 11:11:41;;;;;;;8.90;3.00;;;13.60;99.90;;;;;;6275297;22;20007;-86
2022/11/05 11:14:22;;;;;;;5.60;2.65;;;13.80;99.90;;;;;;6275083;22;20027;-86
2022/11/05 11:16:50;;;;;;;4.28;2.70;;;13.90;99.90;;;;;;6275804;22;20008;-85
2022/11/05 11:19:33;;;;;;;6.07;3.17;;;14.00;99.90;;;;;;6274891;22;20004;-86
2022/11/05 11:22:02;;;;;;;6.13;3.03;;;14.10;99.90;;;;;;6274460;22;20004;-86
2022/11/05 11:24:30;;;;;;;4.13;2.90;;;14.00;99.90;;;;;;6276142;22;20008;-87
2022/11/05 11:27:09;;;;;;;4.72;2.75;;;13.90;99.90;;;;;;6250455;22;20012;-86
2022/11/05 11:30:07;;;;;;;7.63;2.95;;;13.80;99.90;;;;;;6275272;22;20088;-87
2022/11/05 11:32:48;;;;;;;8.82;3.17;;;13.80;99.90;;;;;;6252206;22;20040;-84
2022/11/05 11:35:25;;;;;;;5.72;3.17;;;13.60;99.90;;;;;;6273934;22;20006;-85
2022/11/05 11:38:02;;;;;;;5.07;2.80;;;13.40;99.90;;;;;;6250673;23;20000;-87
2022/11/05 11:40:34;;;;;;;6.55;2.88;;;13.20;99.90;;;;;;6248915;22;19996;-88
2022/11/05 11:43:17;;;;;;;5.55;3.15;;;13.10;99.90;;;;;;6249054;23;20016;-87
2022/11/05 11:45:59;;;;;;;4.45;3.10;;;13.00;99.90;;;;;;6271752;23;20008;-87
2022/11/05 11:48:51;;;;;;;3.80;3.00;;;13.00;99.90;;;;;;6245905;23;20146;-87
2022/11/05 11:51:43;;;;;;;8.00;3.58;;;12.80;99.90;;;;;;6260768;22;20063;-87
2022/11/05 11:54:23;;;;;;;4.63;3.00;;;12.80;99.90;;;;;;6247182;23;20004;-86
2022/11/05 11:57:20;;;;;;;8.10;2.80;;;12.80;99.90;;;;;;6245993;23;20008;-87
2022/11/05 11:59:53;;;;;;;7.63;2.90;;;13.00;99.90;;;;;;6244752;23;20012;-87
2022/11/05 12:03:07;;;;;;;;;;;;;;;;;;;;;
2022/11/05 12:06:00;;;;;;;5.55;2.50;;;13.10;99.90;;;;;;6268696;23;20030;-87
2022/11/05 12:08:38;;;;;;;4.05;2.90;;;13.20;99.90;;;;;;6244353;23;20031;-86
2022/11/05 12:11:09;;;;;;;8.65;2.72;;;13.10;99.90;;;;;;6270192;23;20020;-89
2022/11/05 12:13:57;;;;;;;5.45;3.58;;;13.10;99.90;;;;;;6271277;22;20008;-84
2022/11/05 12:16:38;;;;;;;4.95;3.50;;;13.00;99.90;;;;;;6272521;23;20003;-86
2022/11/05 12:19:45;;;;;;;8.80;2.88;;;13.00;99.90;;;;;;6274288;22;20004;-89
2022/11/05 12:22:49;;;;;;;4.90;2.50;;;12.90;99.90;;;;;;6247998;22;20007;-88
2022/11/05 12:25:52;;;;;;;3.90;2.30;;;12.80;99.90;;;;;;6248320;22;20008;-86
2022/11/05 12:28:42;;;;;;;3.95;2.40;;;12.80;99.90;;;;;;6273328;22;20000;-87
2022/11/05 12:31:36;;;;;;;5.13;2.47;;;12.80;99.90;;;;;;6273396;22;20130;-88
2022/11/05 12:34:23;;;;;;;4.82;2.45;;;12.70;99.90;;;;;;6247836;22;19996;-87
2022/11/05 12:36:58;;;;;;;4.22;2.10;;;12.60;99.90;;;;;;6274416;22;20028;-86
2022/11/05 12:39:33;;;;;;;;;;;12.60;99.90;;;;;;6272354;22;20000;-88
2022/11/05 12:42:25;;;;;;;5.85;2.10;;;12.60;99.90;;;;;;6267217;23;19926;-87
2022/11/05 12:45:19;;;;;;;4.35;2.40;;;12.60;99.90;;;;;;6252364;22;20098;-80
2022/11/05 12:47:57;;;;;;;4.47;2.33;;;12.70;99.90;;;;;;6223791;23;20004;-80
2022/11/05 12:50:36;;;;;;;2.65;1.92;;;12.80;99.90;;;;;;6257956;23;20004;-79
2022/11/05 12:53:28;;;;;;;2.85;2.15;;;12.80;99.90;;;;;;6258958;23;20000;-78
2022/11/05 12:55:57;;;;;;;5.53;2.10;;;12.90;99.90;;;;;;6222003;23;20054;-82
2022/11/05 12:59:01;;;;;;;3.50;2.10;;;12.90;99.90;;;;;;6194523;23;20008;-79
2022/11/05 13:01:50;;;;;;;4.70;1.90;;;13.00;99.90;;;;;;6119996;23;20414;-79
2022/11/05 13:04:37;;;;;;;5.47;2.13;;;13.00;99.90;;;;;;6219435;23;20013;-79
2022/11/05 13:07:08;;;;;;;3.83;1.67;;;13.00;99.90;;;;;;6220283;23;20004;-78
2022/11/05 13:09:40;;;;;;;3.92;2.38;;;13.10;99.90;;;;;;6221478;23;20030;-80
2022/11/05 13:12:15;;;;;;;5.00;2.20;;;13.10;99.90;;;;;;6229193;23;20009;-81
2022/11/05 13:15:16;;;;;;;4.18;2.00;;;13.10;99.90;;;;;;6192310;23;20012;-80
2022/11/05 13:17:49;;;;;;;2.50;1.80;;;13.10;99.90;;;;;;6212709;23;20012;-78
2022/11/05 13:20:21;;;;;;;4.07;2.20;;;13.10;99.90;;;;;;6219548;23;20012;-79
2022/11/05 13:22:55;;;;;;;4.53;2.30;;;13.10;99.90;;;;;;6219463;23;20063;-80
2022/11/05 13:25:34;;;;;;;4.88;2.17;;;13.10;99.90;;;;;;6219644;23;20043;-79
2022/11/05 13:28:05;;;;;;;4.20;2.00;;;13.10;99.90;;;;;;6218008;23;20434;-80
2022/11/05 13:30:41;;;;;;;3.35;2.00;;;13.10;99.90;;;;;;6220938;23;20024;-79
2022/11/05 13:33:21;;;;;;;7.47;2.22;;;13.00;99.90;;;;;;6220853;23;20100;-79
2022/11/05 13:38:58;;;;;;;5.40;1.90;;;12.90;99.90;;;;;;6219716;23;20370;-78
2022/11/05 13:39:01;;;;;;;4.53;2.38;;;12.80;99.90;;;;;;6219838;23;20056;-80
2022/11/05 13:41:42;;;;;;;6.28;2.40;;;12.70;99.90;;;;;;6195787;23;20063;-79
2022/11/05 13:44:28;;;;;;;3.95;2.08;;;12.80;99.90;;;;;;6218220;23;20027;-80
2022/11/05 13:47:29;;;;;;;5.95;1.95;;;12.70;99.90;;;;;;6219981;23;20011;-79
2022/11/05 13:50:26;;;;;;;3.70;2.42;;;12.70;99.90;;;;;;6214707;23;20034;-82
2022/11/05 13:53:13;;;;;;;3.30;2.28;;;12.60;99.90;;;;;;6224973;23;20001;-79
2022/11/05 13:55:56;;;;;;;3.53;2.00;;;12.60;99.90;;;;;;6224762;23;20019;-80
2022/11/05 13:58:43;;;;;;;6.13;2.47;;;12.60;99.90;;;;;;6213829;23;20020;-79
2022/11/05 14:01:25;;;;;;;4.03;2.28;;;12.50;99.90;;;;;;6240086;22;19997;-79
2022/11/05 14:03:54;;;;;;;6.10;2.60;;;12.50;99.90;;;;;;6235378;23;20048;-79